logo
Search for airport 
image banner adimage banner adimage banner ad
image banner ad

VOMY - Mysuru Airport

Located in Mysuru, India

ICAO - VOMY, IATA - MYQ

Data provided by Airmate  

General information

Coordinates: N12°13'57" E76°39'23"
Elevation is 2394 feet MSL.
 
View others Airports in Karnataka

Operational data

Special qualification required
Current time UTC:
Current local time:
Weather
METAR: VOMY 191430Z 28010KT 6000 SCT015 FEW025CB SCT080 28/19 Q1011
TAF: TAF VOMY 190800Z 1909/1918 VRB02KT 6000 SCT015 TEMPO 1909/1915 09010KT 5000 RA DZ SCT012 SCT020 FEW025CB
View NOTAMs / SUP AIP / TFR affecting this airport [VIEW]
Communications frequencies: [VIEW]

Runways:

RWY identifierQFULength (ft)Width (ft)SurfaceLDA (ft)
0988°570998UNK
27268°570998UNK

Airport contact information

Address: Mysuru India

Satellite view of VOMY